sensor_id;sensor_type;location;lat;lon;timestamp;noise_LAeq;noise_LA_min;noise_LA_max;noise_LA01;noise_LA95
66450;Laerm;56829;52.274;4.770;2023-02-15T00:00:10;39.31;37.37;40.98;;
66450;Laerm;56829;52.274;4.770;2023-02-15T00:00:21;38.75;36.27;41.46;;
66450;Laerm;56829;52.274;4.770;2023-02-15T00:00:31;38.30;36.50;40.20;;
66450;Laerm;56829;52.274;4.770;2023-02-15T00:00:41;36.93;34.99;38.66;;
66450;Laerm;56829;52.274;4.770;2023-02-15T00:00:51;38.63;35.60;41.19;;
66450;Laerm;56829;52.274;4.770;2023-02-15T00:01:08;37.91;36.24;39.47;;
66450;Laerm;56829;52.274;4.770;2023-02-15T00:01:18;39.28;36.60;41.99;;
66450;Laerm;56829;52.274;4.770;2023-02-15T00:01:28;37.47;35.63;40.08;;
66450;Laerm;56829;52.274;4.770;2023-02-15T00:01:39;36.45;34.37;38.43;;
66450;Laerm;56829;52.274;4.770;2023-02-15T00:01:49;37.31;35.36;40.84;;
66450;Laerm;56829;52.274;4.770;2023-02-15T00:02:00;37.71;35.22;41.16;;
66450;Laerm;56829;52.274;4.770;2023-02-15T00:02:10;40.59;35.14;46.75;;
66450;Laerm;56829;52.274;4.770;2023-02-15T00:02:21;38.98;35.75;45.60;;
66450;Laerm;56829;52.274;4.770;2023-02-15T00:02:31;38.19;36.26;40.24;;
66450;Laerm;56829;52.274;4.770;2023-02-15T00:02:41;37.88;35.91;40.02;;
66450;Laerm;56829;52.274;4.770;2023-02-15T00:02:51;38.96;37.02;40.68;;
66450;Laerm;56829;52.274;4.770;2023-02-15T00:03:01;39.49;37.39;45.36;;
66450;Laerm;56829;52.274;4.770;2023-02-15T00:03:12;38.18;35.99;40.40;;
66450;Laerm;56829;52.274;4.770;2023-02-15T00:03:22;37.46;35.27;39.29;;
66450;Laerm;56829;52.274;4.770;2023-02-15T00:03:32;38.10;35.84;40.78;;
66450;Laerm;56829;52.274;4.770;2023-02-15T00:03:42;40.69;35.67;48.68;;
66450;Laerm;56829;52.274;4.770;2023-02-15T00:03:52;43.00;37.33;48.11;;
66450;Laerm;56829;52.274;4.770;2023-02-15T00:04:06;49.51;36.99;56.53;;
66450;Laerm;56829;52.274;4.770;2023-02-15T00:04:17;42.09;36.93;53.02;;
66450;Laerm;56829;52.274;4.770;2023-02-15T00:04:28;38.22;35.67;40.55;;
66450;Laerm;56829;52.274;4.770;2023-02-15T00:04:56;38.24;35.58;41.89;;
66450;Laerm;56829;52.274;4.770;2023-02-15T00:05:07;37.32;35.27;38.91;;
66450;Laerm;56829;52.274;4.770;2023-02-15T00:05:17;37.52;35.97;39.15;;
66450;Laerm;56829;52.274;4.770;2023-02-15T00:05:27;37.68;36.11;39.27;;
66450;Laerm;56829;52.274;4.770;2023-02-15T00:05:39;40.88;37.84;43.30;;
66450;Laerm;56829;52.274;4.770;2023-02-15T00:05:50;45.78;38.17;51.95;;
66450;Laerm;56829;52.274;4.770;2023-02-15T00:06:00;55.59;41.59;65.53;;
66450;Laerm;56829;52.274;4.770;2023-02-15T00:06:10;39.57;36.32;43.87;;
66450;Laerm;56829;52.274;4.770;2023-02-15T00:06:20;37.91;36.50;42.94;;
66450;Laerm;56829;52.274;4.770;2023-02-15T00:06:31;36.93;34.59;38.93;;
66450;Laerm;56829;52.274;4.770;2023-02-15T00:06:41;39.89;35.26;50.00;;
66450;Laerm;56829;52.274;4.770;2023-02-15T00:06:51;38.30;35.85;40.77;;
66450;Laerm;56829;52.274;4.770;2023-02-15T00:07:01;39.16;36.63;42.41;;
66450;Laerm;56829;52.274;4.770;2023-02-15T00:07:13;40.66;36.98;43.26;;
66450;Laerm;56829;52.274;4.770;2023-02-15T00:07:23;42.18;38.16;46.36;;
66450;Laerm;56829;52.274;4.770;2023-02-15T00:07:34;49.46;40.31;56.13;;
66450;Laerm;56829;52.274;4.770;2023-02-15T00:07:44;39.62;37.14;42.60;;
66450;Laerm;56829;52.274;4.770;2023-02-15T00:07:54;37.82;36.20;40.14;;
66450;Laerm;56829;52.274;4.770;2023-02-15T00:08:04;37.53;35.67;40.67;;
66450;Laerm;56829;52.274;4.770;2023-02-15T00:08:14;37.68;35.46;39.34;;
66450;Laerm;56829;52.274;4.770;2023-02-15T00:08:25;37.70;35.63;39.47;;
66450;Laerm;56829;52.274;4.770;2023-02-15T00:08:35;38.01;36.01;39.89;;
66450;Laerm;56829;52.274;4.770;2023-02-15T00:08:45;37.57;35.55;39.06;;
66450;Laerm;56829;52.274;4.770;2023-02-15T00:08:55;37.54;35.73;39.20;;
66450;Laerm;56829;52.274;4.770;2023-02-15T00:09:06;38.23;36.24;43.19;;
66450;Laerm;56829;52.274;4.770;2023-02-15T00:09:16;39.26;37.05;43.08;;
66450;Laerm;56829;52.274;4.770;2023-02-15T00:09:26;43.34;37.57;50.51;;
66450;Laerm;56829;52.274;4.770;2023-02-15T00:09:36;49.68;39.92;57.19;;
66450;Laerm;56829;52.274;4.770;2023-02-15T00:09:47;40.47;38.20;42.28;;
66450;Laerm;56829;52.274;4.770;2023-02-15T00:09:57;39.81;37.36;42.04;;
66450;Laerm;56829;52.274;4.770;2023-02-15T00:10:07;38.88;36.00;41.39;;
66450;Laerm;56829;52.274;4.770;2023-02-15T00:10:18;37.93;35.92;45.86;;
66450;Laerm;56829;52.274;4.770;2023-02-15T00:10:28;37.67;35.82;39.52;;
66450;Laerm;56829;52.274;4.770;2023-02-15T00:10:38;37.87;35.92;39.81;;
66450;Laerm;56829;52.274;4.770;2023-02-15T00:10:48;38.36;36.16;40.56;;
66450;Laerm;56829;52.274;4.770;2023-02-15T00:11:08;38.29;36.46;40.13;;
66450;Laerm;56829;52.274;4.770;2023-02-15T00:11:18;37.55;35.08;40.62;;
66450;Laerm;56829;52.274;4.770;2023-02-15T00:11:47;38.50;34.89;44.40;;
66450;Laerm;56829;52.274;4.770;2023-02-15T00:12:00;37.99;35.35;40.22;;
66450;Laerm;56829;52.274;4.770;2023-02-15T00:12:10;37.69;35.55;39.92;;
66450;Laerm;56829;52.274;4.770;2023-02-15T00:12:21;38.47;35.75;49.05;;
66450;Laerm;56829;52.274;4.770;2023-02-15T00:12:31;37.39;34.87;39.26;;
66450;Laerm;56829;52.274;4.770;2023-02-15T00:12:41;38.02;35.75;43.21;;
66450;Laerm;56829;52.274;4.770;2023-02-15T00:12:51;37.87;35.70;39.52;;
66450;Laerm;56829;52.274;4.770;2023-02-15T00:13:02;37.41;35.41;39.62;;
66450;Laerm;56829;52.274;4.770;2023-02-15T00:13:12;37.33;35.54;39.03;;
66450;Laerm;56829;52.274;4.770;2023-02-15T00:13:22;37.95;36.05;40.80;;
66450;Laerm;56829;52.274;4.770;2023-02-15T00:13:32;39.68;35.59;53.00;;
66450;Laerm;56829;52.274;4.770;2023-02-15T00:13:43;37.67;35.91;39.80;;
66450;Laerm;56829;52.274;4.770;2023-02-15T00:13:53;37.20;35.56;39.46;;
66450;Laerm;56829;52.274;4.770;2023-02-15T00:14:05;37.89;35.43;39.92;;
66450;Laerm;56829;52.274;4.770;2023-02-15T00:14:17;37.48;34.78;39.65;;
66450;Laerm;56829;52.274;4.770;2023-02-15T00:14:28;36.68;34.29;38.83;;
66450;Laerm;56829;52.274;4.770;2023-02-15T00:14:38;36.83;34.30;38.72;;
66450;Laerm;56829;52.274;4.770;2023-02-15T00:14:48;37.25;35.44;39.15;;
66450;Laerm;56829;52.274;4.770;2023-02-15T00:14:59;37.44;35.38;39.16;;
66450;Laerm;56829;52.274;4.770;2023-02-15T00:15:09;38.29;35.04;47.69;;
66450;Laerm;56829;52.274;4.770;2023-02-15T00:15:19;37.45;34.64;39.28;;
66450;Laerm;56829;52.274;4.770;2023-02-15T00:15:29;37.17;35.21;38.93;;
66450;Laerm;56829;52.274;4.770;2023-02-15T00:15:39;37.85;35.30;40.70;;
66450;Laerm;56829;52.274;4.770;2023-02-15T00:15:50;37.66;35.83;40.02;;
66450;Laerm;56829;52.274;4.770;2023-02-15T00:16:03;36.70;34.73;38.38;;
66450;Laerm;56829;52.274;4.770;2023-02-15T00:16:13;36.91;34.94;39.34;;
66450;Laerm;56829;52.274;4.770;2023-02-15T00:16:23;37.91;35.63;39.32;;
66450;Laerm;56829;52.274;4.770;2023-02-15T00:16:34;38.23;36.21;42.50;;
66450;Laerm;56829;52.274;4.770;2023-02-15T00:16:44;37.83;34.20;45.55;;
66450;Laerm;56829;52.274;4.770;2023-02-15T00:16:55;36.51;34.45;39.08;;
66450;Laerm;56829;52.274;4.770;2023-02-15T00:17:05;37.58;35.61;40.41;;
66450;Laerm;56829;52.274;4.770;2023-02-15T00:17:15;38.00;35.50;41.29;;
66450;Laerm;56829;52.274;4.770;2023-02-15T00:17:28;37.06;34.72;39.37;;
66450;Laerm;56829;52.274;4.770;2023-02-15T00:17:39;37.90;35.10;40.11;;
66450;Laerm;56829;52.274;4.770;2023-02-15T00:17:50;37.89;35.62;41.04;;
66450;Laerm;56829;52.274;4.770;2023-02-15T00:18:00;37.86;35.57;42.66;;
66450;Laerm;56829;52.274;4.770;2023-02-15T00:18:10;37.76;35.83;39.97;;
66450;Laerm;56829;52.274;4.770;2023-02-15T00:18:20;37.99;35.67;41.11;;
66450;Laerm;56829;52.274;4.770;2023-02-15T00:18:31;37.21;35.34;38.70;;
66450;Laerm;56829;52.274;4.770;2023-02-15T00:18:41;36.95;34.85;38.98;;
66450;Laerm;56829;52.274;4.770;2023-02-15T00:18:51;37.43;35.75;40.93;;
66450;Laerm;56829;52.274;4.770;2023-02-15T00:19:02;37.91;36.11;39.99;;
66450;Laerm;56829;52.274;4.770;2023-02-15T00:19:13;38.48;36.62;40.49;;
66450;Laerm;56829;52.274;4.770;2023-02-15T00:19:24;38.56;37.00;40.14;;
66450;Laerm;56829;52.274;4.770;2023-02-15T00:19:34;38.92;36.71;42.24;;
66450;Laerm;56829;52.274;4.770;2023-02-15T00:19:45;39.54;37.06;41.56;;
66450;Laerm;56829;52.274;4.770;2023-02-15T00:19:55;39.36;37.28;41.62;;
66450;Laerm;56829;52.274;4.770;2023-02-15T00:20:05;38.96;37.10;40.55;;
66450;Laerm;56829;52.274;4.770;2023-02-15T00:20:15;38.74;37.09;40.78;;
66450;Laerm;56829;52.274;4.770;2023-02-15T00:20:29;38.67;36.86;40.67;;
66450;Laerm;56829;52.274;4.770;2023-02-15T00:20:39;39.02;37.22;40.41;;
66450;Laerm;56829;52.274;4.770;2023-02-15T00:20:49;38.67;36.92;40.60;;
66450;Laerm;56829;52.274;4.770;2023-02-15T00:21:03;39.14;37.27;41.23;;
66450;Laerm;56829;52.274;4.770;2023-02-15T00:21:13;38.93;36.47;42.52;;
66450;Laerm;56829;52.274;4.770;2023-02-15T00:21:24;39.63;37.67;42.15;;
66450;Laerm;56829;52.274;4.770;2023-02-15T00:21:35;39.46;37.49;41.13;;
66450;Laerm;56829;52.274;4.770;2023-02-15T00:21:46;39.30;37.04;41.50;;
66450;Laerm;56829;52.274;4.770;2023-02-15T00:21:56;39.83;37.60;41.55;;
66450;Laerm;56829;52.274;4.770;2023-02-15T00:22:06;39.67;38.15;41.61;;
66450;Laerm;56829;52.274;4.770;2023-02-15T00:22:16;39.80;37.51;41.88;;
66450;Laerm;56829;52.274;4.770;2023-02-15T00:22:26;40.56;38.62;42.68;;
66450;Laerm;56829;52.274;4.770;2023-02-15T00:22:37;40.83;37.99;48.25;;
66450;Laerm;56829;52.274;4.770;2023-02-15T00:22:47;40.26;38.61;41.87;;
66450;Laerm;56829;52.274;4.770;2023-02-15T00:22:58;39.80;38.04;41.39;;
66450;Laerm;56829;52.274;4.770;2023-02-15T00:23:08;40.24;38.50;42.24;;
66450;Laerm;56829;52.274;4.770;2023-02-15T00:23:18;40.21;37.94;42.90;;
66450;Laerm;56829;52.274;4.770;2023-02-15T00:23:28;40.31;38.73;42.01;;
66450;Laerm;56829;52.274;4.770;2023-02-15T00:23:38;43.14;38.29;52.88;;
66450;Laerm;56829;52.274;4.770;2023-02-15T00:23:49;41.45;39.60;44.23;;
66450;Laerm;56829;52.274;4.770;2023-02-15T00:24:00;40.73;37.89;43.19;;
66450;Laerm;56829;52.274;4.770;2023-02-15T00:24:11;39.97;37.31;41.50;;
66450;Laerm;56829;52.274;4.770;2023-02-15T00:24:21;40.16;38.41;41.52;;
66450;Laerm;56829;52.274;4.770;2023-02-15T00:24:31;40.83;38.93;44.55;;
66450;Laerm;56829;52.274;4.770;2023-02-15T00:24:42;40.91;38.61;44.85;;
66450;Laerm;56829;52.274;4.770;2023-02-15T00:24:52;47.68;39.86;56.58;;
66450;Laerm;56829;52.274;4.770;2023-02-15T00:25:02;51.81;42.26;59.22;;
66450;Laerm;56829;52.274;4.770;2023-02-15T00:25:12;47.06;41.62;57.77;;
66450;Laerm;56829;52.274;4.770;2023-02-15T00:25:23;41.46;38.86;44.36;;
66450;Laerm;56829;52.274;4.770;2023-02-15T00:25:33;41.03;38.58;43.80;;
66450;Laerm;56829;52.274;4.770;2023-02-15T00:25:43;40.41;37.88;42.46;;
66450;Laerm;56829;52.274;4.770;2023-02-15T00:26:15;39.57;37.65;41.42;;
66450;Laerm;56829;52.274;4.770;2023-02-15T00:26:24;45.23;37.75;64.02;;
66450;Laerm;56829;52.274;4.770;2023-02-15T00:26:35;39.70;37.76;41.30;;
66450;Laerm;56829;52.274;4.770;2023-02-15T00:26:47;39.26;37.29;40.94;;
66450;Laerm;56829;52.274;4.770;2023-02-15T00:26:57;39.31;37.72;40.98;;
66450;Laerm;56829;52.274;4.770;2023-02-15T00:27:07;39.02;36.99;40.68;;
66450;Laerm;56829;52.274;4.770;2023-02-15T00:27:19;40.03;36.91;46.33;;
66450;Laerm;56829;52.274;4.770;2023-02-15T00:27:29;41.12;37.24;47.35;;
66450;Laerm;56829;52.274;4.770;2023-02-15T00:27:39;40.32;37.88;47.86;;
66450;Laerm;56829;52.274;4.770;2023-02-15T00:27:49;43.04;38.28;48.87;;
66450;Laerm;56829;52.274;4.770;2023-02-15T00:27:59;49.60;41.79;55.84;;
66450;Laerm;56829;52.274;4.770;2023-02-15T00:28:09;58.23;47.78;67.91;;
66450;Laerm;56829;52.274;4.770;2023-02-15T00:28:20;43.64;37.79;50.14;;
66450;Laerm;56829;52.274;4.770;2023-02-15T00:28:31;39.17;37.25;40.90;;
66450;Laerm;56829;52.274;4.770;2023-02-15T00:28:41;39.33;37.33;42.20;;
66450;Laerm;56829;52.274;4.770;2023-02-15T00:28:52;39.69;36.66;42.14;;
66450;Laerm;56829;52.274;4.770;2023-02-15T00:29:02;38.98;36.49;41.27;;
66450;Laerm;56829;52.274;4.770;2023-02-15T00:29:13;38.93;36.46;43.82;;
66450;Laerm;56829;52.274;4.770;2023-02-15T00:29:24;40.72;37.09;46.39;;
66450;Laerm;56829;52.274;4.770;2023-02-15T00:29:34;38.63;36.18;41.74;;
66450;Laerm;56829;52.274;4.770;2023-02-15T00:29:46;38.76;36.33;40.82;;
66450;Laerm;56829;52.274;4.770;2023-02-15T00:29:56;38.59;36.45;40.63;;
66450;Laerm;56829;52.274;4.770;2023-02-15T00:30:06;38.83;36.56;40.89;;
66450;Laerm;56829;52.274;4.770;2023-02-15T00:30:16;38.86;37.08;40.87;;
66450;Laerm;56829;52.274;4.770;2023-02-15T00:30:27;39.22;37.35;40.72;;
66450;Laerm;56829;52.274;4.770;2023-02-15T00:30:37;38.91;36.78;40.67;;
66450;Laerm;56829;52.274;4.770;2023-02-15T00:30:47;38.87;37.23;40.74;;
66450;Laerm;56829;52.274;4.770;2023-02-15T00:31:07;38.79;36.97;41.30;;
66450;Laerm;56829;52.274;4.770;2023-02-15T00:31:17;38.96;36.83;41.38;;
66450;Laerm;56829;52.274;4.770;2023-02-15T00:31:28;38.96;36.89;40.86;;
66450;Laerm;56829;52.274;4.770;2023-02-15T00:31:40;38.82;36.91;41.03;;
66450;Laerm;56829;52.274;4.770;2023-02-15T00:31:50;38.25;36.30;40.00;;
66450;Laerm;56829;52.274;4.770;2023-02-15T00:32:01;38.91;36.71;40.94;;
66450;Laerm;56829;52.274;4.770;2023-02-15T00:32:12;38.69;36.90;41.17;;
66450;Laerm;56829;52.274;4.770;2023-02-15T00:32:22;38.84;36.78;41.50;;
66450;Laerm;56829;52.274;4.770;2023-02-15T00:32:32;42.06;37.28;49.08;;
66450;Laerm;56829;52.274;4.770;2023-02-15T00:32:42;39.77;36.14;49.93;;
66450;Laerm;56829;52.274;4.770;2023-02-15T00:32:52;39.12;36.75;44.37;;
66450;Laerm;56829;52.274;4.770;2023-02-15T00:33:03;38.41;36.25;42.82;;
66450;Laerm;56829;52.274;4.770;2023-02-15T00:33:13;38.70;37.02;40.42;;
66450;Laerm;56829;52.274;4.770;2023-02-15T00:33:23;39.05;37.09;41.14;;
66450;Laerm;56829;52.274;4.770;2023-02-15T00:33:35;39.18;36.76;41.08;;
66450;Laerm;56829;52.274;4.770;2023-02-15T00:33:45;39.36;37.40;41.98;;
66450;Laerm;56829;52.274;4.770;2023-02-15T00:34:00;39.30;36.86;41.75;;
66450;Laerm;56829;52.274;4.770;2023-02-15T00:34:11;38.61;36.44;40.68;;
66450;Laerm;56829;52.274;4.770;2023-02-15T00:34:23;38.34;36.04;41.08;;
66450;Laerm;56829;52.274;4.770;2023-02-15T00:52:13;36.90;33.76;42.75;;
66450;Laerm;56829;52.274;4.770;2023-02-15T00:52:23;37.06;34.28;39.36;;
66450;Laerm;56829;52.274;4.770;2023-02-15T00:52:34;37.48;35.33;39.26;;
66450;Laerm;56829;52.274;4.770;2023-02-15T00:52:44;38.45;35.68;41.94;;
66450;Laerm;56829;52.274;4.770;2023-02-15T00:52:54;36.81;34.32;39.40;;
66450;Laerm;56829;52.274;4.770;2023-02-15T00:53:04;40.27;35.81;45.29;;
66450;Laerm;56829;52.274;4.770;2023-02-15T00:53:15;40.29;35.37;46.98;;
66450;Laerm;56829;52.274;4.770;2023-02-15T00:53:25;38.13;35.83;40.74;;
66450;Laerm;56829;52.274;4.770;2023-02-15T00:53:36;41.57;37.34;47.19;;
66450;Laerm;56829;52.274;4.770;2023-02-15T00:53:46;47.23;39.31;53.61;;
66450;Laerm;56829;52.274;4.770;2023-02-15T00:53:56;43.44;39.13;50.25;;
66450;Laerm;56829;52.274;4.770;2023-02-15T00:54:06;39.30;36.80;41.73;;
66450;Laerm;56829;52.274;4.770;2023-02-15T00:54:17;39.41;37.08;42.61;;
66450;Laerm;56829;52.274;4.770;2023-02-15T00:54:27;40.10;37.21;43.25;;
66450;Laerm;56829;52.274;4.770;2023-02-15T00:54:37;40.85;37.61;46.19;;
66450;Laerm;56829;52.274;4.770;2023-02-15T00:54:48;40.36;37.79;45.18;;
66450;Laerm;56829;52.274;4.770;2023-02-15T00:54:58;39.28;36.91;41.11;;
66450;Laerm;56829;52.274;4.770;2023-02-15T00:55:09;41.43;37.15;43.92;;
66450;Laerm;56829;52.274;4.770;2023-02-15T00:55:19;43.43;38.14;48.47;;
66450;Laerm;56829;52.274;4.770;2023-02-15T00:55:29;39.11;36.63;41.65;;
66450;Laerm;56829;52.274;4.770;2023-02-15T00:55:39;44.46;38.67;49.87;;
66450;Laerm;56829;52.274;4.770;2023-02-15T00:55:50;45.99;37.61;51.80;;
66450;Laerm;56829;52.274;4.770;2023-02-15T00:56:00;43.92;39.71;48.68;;
66450;Laerm;56829;52.274;4.770;2023-02-15T00:56:10;50.04;42.31;57.92;;
66450;Laerm;56829;52.274;4.770;2023-02-15T00:56:21;51.62;43.49;57.09;;
66450;Laerm;56829;52.274;4.770;2023-02-15T00:56:31;62.56;47.83;68.09;;
66450;Laerm;56829;52.274;4.770;2023-02-15T00:56:41;55.67;42.75;60.53;;
66450;Laerm;56829;52.274;4.770;2023-02-15T00:56:51;38.55;35.09;44.21;;
66450;Laerm;56829;52.274;4.770;2023-02-15T00:57:02;37.18;34.82;39.27;;
66450;Laerm;56829;52.274;4.770;2023-02-15T00:57:12;37.19;34.01;39.97;;
66450;Laerm;56829;52.274;4.770;2023-02-15T00:57:22;36.93;34.80;38.94;;
66450;Laerm;56829;52.274;4.770;2023-02-15T00:57:32;37.51;34.79;43.39;;
66450;Laerm;56829;52.274;4.770;2023-02-15T00:57:43;37.52;35.70;39.54;;
66450;Laerm;56829;52.274;4.770;2023-02-15T00:57:53;37.03;35.28;39.29;;
66450;Laerm;56829;52.274;4.770;2023-02-15T00:58:03;36.79;34.83;38.29;;
66450;Laerm;56829;52.274;4.770;2023-02-15T00:58:14;37.10;34.58;43.31;;
66450;Laerm;56829;52.274;4.770;2023-02-15T00:58:25;36.82;34.95;39.76;;
66450;Laerm;56829;52.274;4.770;2023-02-15T00:58:35;37.25;35.13;38.80;;
66450;Laerm;56829;52.274;4.770;2023-02-15T00:58:45;37.22;35.26;40.89;;
66450;Laerm;56829;52.274;4.770;2023-02-15T00:58:55;37.23;35.12;39.66;;
66450;Laerm;56829;52.274;4.770;2023-02-15T00:59:06;36.92;34.86;38.79;;
66450;Laerm;56829;52.274;4.770;2023-02-15T00:59:16;37.11;34.73;39.09;;
66450;Laerm;56829;52.274;4.770;2023-02-15T00:59:26;36.55;34.65;38.28;;
66450;Laerm;56829;52.274;4.770;2023-02-15T00:59:36;36.53;34.48;41.00;;
66450;Laerm;56829;52.274;4.770;2023-02-15T00:59:46;36.82;34.93;38.64;;
66450;Laerm;56829;52.274;4.770;2023-02-15T00:59:57;36.74;34.40;38.39;;
66450;Laerm;56829;52.274;4.770;2023-02-15T01:00:07;36.51;34.29;38.42;;
66450;Laerm;56829;52.274;4.770;2023-02-15T01:00:17;36.95;34.32;40.60;;
66450;Laerm;56829;52.274;4.770;2023-02-15T01:00:28;36.96;34.65;39.63;;
66450;Laerm;56829;52.274;4.770;2023-02-15T01:00:38;37.95;35.73;40.32;;
66450;Laerm;56829;52.274;4.770;2023-02-15T01:00:48;37.82;35.42;41.17;;
66450;Laerm;56829;52.274;4.770;2023-02-15T01:01:03;37.73;35.27;41.72;;
66450;Laerm;56829;52.274;4.770;2023-02-15T01:01:15;37.78;35.33;41.71;;
66450;Laerm;56829;52.274;4.770;2023-02-15T01:01:26;38.30;35.36;41.04;;
66450;Laerm;56829;52.274;4.770;2023-02-15T01:01:36;37.70;35.46;41.04;;
66450;Laerm;56829;52.274;4.770;2023-02-15T01:01:46;37.51;34.61;39.49;;
66450;Laerm;56829;52.274;4.770;2023-02-15T01:01:56;38.09;35.74;40.33;;
66450;Laerm;56829;52.274;4.770;2023-02-15T01:02:07;37.90;36.20;39.57;;
66450;Laerm;56829;52.274;4.770;2023-02-15T01:02:17;37.80;36.10;39.62;;
66450;Laerm;56829;52.274;4.770;2023-02-15T01:02:27;38.06;35.87;40.66;;
66450;Laerm;56829;52.274;4.770;2023-02-15T01:02:38;37.77;35.86;39.77;;
66450;Laerm;56829;52.274;4.770;2023-02-15T01:02:48;37.47;35.30;41.67;;
66450;Laerm;56829;52.274;4.770;2023-02-15T01:02:58;37.49;35.07;40.24;;
66450;Laerm;56829;52.274;4.770;2023-02-15T01:03:09;38.63;35.25;44.29;;
66450;Laerm;56829;52.274;4.770;2023-02-15T01:03:19;36.75;34.97;39.15;;
66450;Laerm;56829;52.274;4.770;2023-02-15T01:03:30;36.48;34.20;40.16;;
66450;Laerm;56829;52.274;4.770;2023-02-15T01:03:40;36.58;34.86;38.75;;
66450;Laerm;56829;52.274;4.770;2023-02-15T01:03:54;36.76;34.73;40.01;;
66450;Laerm;56829;52.274;4.770;2023-02-15T01:04:04;37.04;34.46;39.31;;
66450;Laerm;56829;52.274;4.770;2023-02-15T01:04:14;36.52;33.94;38.35;;
66450;Laerm;56829;52.274;4.770;2023-02-15T01:04:24;35.48;33.49;36.91;;
66450;Laerm;56829;52.274;4.770;2023-02-15T01:04:34;35.64;34.03;37.55;;
66450;Laerm;56829;52.274;4.770;2023-02-15T01:04:45;36.68;34.19;43.10;;
66450;Laerm;56829;52.274;4.770;2023-02-15T01:04:55;36.31;34.54;38.55;;
66450;Laerm;56829;52.274;4.770;2023-02-15T01:05:05;35.91;33.58;37.52;;
66450;Laerm;56829;52.274;4.770;2023-02-15T01:05:15;36.39;34.08;38.53;;
66450;Laerm;56829;52.274;4.770;2023-02-15T01:05:26;35.97;34.25;38.04;;
66450;Laerm;56829;52.274;4.770;2023-02-15T01:05:36;36.26;33.49;40.16;;
66450;Laerm;56829;52.274;4.770;2023-02-15T01:05:47;36.36;34.52;38.34;;
66450;Laerm;56829;52.274;4.770;2023-02-15T01:05:58;36.32;34.34;38.29;;
66450;Laerm;56829;52.274;4.770;2023-02-15T01:06:09;35.89;33.97;37.48;;
66450;Laerm;56829;52.274;4.770;2023-02-15T01:06:19;35.67;33.76;38.18;;
66450;Laerm;56829;52.274;4.770;2023-02-15T01:06:29;35.73;33.52;37.65;;
66450;Laerm;56829;52.274;4.770;2023-02-15T01:06:40;35.66;33.32;37.44;;
66450;Laerm;56829;52.274;4.770;2023-02-15T01:06:50;35.86;33.51;39.05;;
66450;Laerm;56829;52.274;4.770;2023-02-15T01:07:00;36.08;34.21;38.01;;
66450;Laerm;56829;52.274;4.770;2023-02-15T01:07:11;36.17;34.16;37.98;;
66450;Laerm;56829;52.274;4.770;2023-02-15T01:07:22;36.36;33.87;38.25;;
66450;Laerm;56829;52.274;4.770;2023-02-15T01:07:32;35.97;33.97;38.72;;
66450;Laerm;56829;52.274;4.770;2023-02-15T01:07:42;35.88;33.37;37.78;;
66450;Laerm;56829;52.274;4.770;2023-02-15T01:07:52;36.11;33.79;37.76;;
66450;Laerm;56829;52.274;4.770;2023-02-15T01:08:02;36.54;34.77;38.45;;
66450;Laerm;56829;52.274;4.770;2023-02-15T01:08:13;37.18;35.50;39.06;;
66450;Laerm;56829;52.274;4.770;2023-02-15T01:08:23;40.27;36.58;45.65;;
66450;Laerm;56829;52.274;4.770;2023-02-15T01:08:33;51.29;42.99;59.30;;
66450;Laerm;56829;52.274;4.770;2023-02-15T01:08:44;41.05;36.26;46.19;;
66450;Laerm;56829;52.274;4.770;2023-02-15T01:08:54;37.01;35.10;39.61;;
66450;Laerm;56829;52.274;4.770;2023-02-15T01:09:04;36.25;34.22;38.06;;
66450;Laerm;56829;52.274;4.770;2023-02-15T01:09:14;36.75;33.96;40.36;;
66450;Laerm;56829;52.274;4.770;2023-02-15T01:09:25;36.74;34.06;38.84;;
66450;Laerm;56829;52.274;4.770;2023-02-15T01:09:35;37.17;34.89;39.04;;
66450;Laerm;56829;52.274;4.770;2023-02-15T01:09:45;36.81;34.80;39.20;;
66450;Laerm;56829;52.274;4.770;2023-02-15T01:09:55;36.96;34.87;40.08;;
66450;Laerm;56829;52.274;4.770;2023-02-15T01:10:06;37.21;35.43;39.76;;
66450;Laerm;56829;52.274;4.770;2023-02-15T01:10:16;36.29;33.98;41.28;;
66450;Laerm;56829;52.274;4.770;2023-02-15T01:10:27;36.30;33.97;38.84;;
66450;Laerm;56829;52.274;4.770;2023-02-15T01:10:37;36.01;33.97;38.49;;
66450;Laerm;56829;52.274;4.770;2023-02-15T01:10:47;35.53;32.91;37.88;;
66450;Laerm;56829;52.274;4.770;2023-02-15T01:11:02;36.30;34.24;38.37;;
66450;Laerm;56829;52.274;4.770;2023-02-15T01:11:16;36.27;34.55;38.05;;
66450;Laerm;56829;52.274;4.770;2023-02-15T01:11:31;36.21;34.29;38.91;;
66450;Laerm;56829;52.274;4.770;2023-02-15T01:11:42;35.23;33.47;36.97;;
66450;Laerm;56829;52.274;4.770;2023-02-15T01:11:52;35.44;33.55;37.19;;
66450;Laerm;56829;52.274;4.770;2023-02-15T01:12:02;35.84;34.07;39.24;;
66450;Laerm;56829;52.274;4.770;2023-02-15T01:12:12;36.20;34.11;38.27;;
66450;Laerm;56829;52.274;4.770;2023-02-15T01:12:22;36.80;35.02;38.38;;
66450;Laerm;56829;52.274;4.770;2023-02-15T01:12:33;36.74;34.11;39.08;;
66450;Laerm;56829;52.274;4.770;2023-02-15T01:12:43;36.86;34.64;38.43;;
66450;Laerm;56829;52.274;4.770;2023-02-15T01:12:54;36.98;34.78;38.54;;
66450;Laerm;56829;52.274;4.770;2023-02-15T01:13:04;37.31;34.68;39.68;;
66450;Laerm;56829;52.274;4.770;2023-02-15T01:13:15;37.74;35.26;40.05;;
66450;Laerm;56829;52.274;4.770;2023-02-15T01:13:25;39.06;36.13;42.61;;
66450;Laerm;56829;52.274;4.770;2023-02-15T01:13:35;47.00;40.50;52.75;;
66450;Laerm;56829;52.274;4.770;2023-02-15T01:13:46;48.91;39.42;57.22;;
66450;Laerm;56829;52.274;4.770;2023-02-15T01:13:56;40.21;37.41;45.34;;
66450;Laerm;56829;52.274;4.770;2023-02-15T01:14:07;38.62;35.71;40.62;;
66450;Laerm;56829;52.274;4.770;2023-02-15T01:14:17;39.03;36.28;43.56;;
66450;Laerm;56829;52.274;4.770;2023-02-15T01:14:27;37.11;34.75;39.16;;
66450;Laerm;56829;52.274;4.770;2023-02-15T01:14:37;36.34;33.99;37.86;;
66450;Laerm;56829;52.274;4.770;2023-02-15T01:14:48;36.43;33.96;39.76;;
66450;Laerm;56829;52.274;4.770;2023-02-15T01:14:58;37.96;35.37;40.34;;
66450;Laerm;56829;52.274;4.770;2023-02-15T01:15:08;37.43;34.39;39.84;;
66450;Laerm;56829;52.274;4.770;2023-02-15T01:15:18;36.81;34.43;39.13;;
66450;Laerm;56829;52.274;4.770;2023-02-15T01:15:29;36.85;34.46;38.66;;
66450;Laerm;56829;52.274;4.770;2023-02-15T01:15:39;36.77;34.78;38.64;;
66450;Laerm;56829;52.274;4.770;2023-02-15T01:15:52;37.47;34.81;40.26;;
66450;Laerm;56829;52.274;4.770;2023-02-15T01:16:03;38.05;35.31;42.46;;
66450;Laerm;56829;52.274;4.770;2023-02-15T01:16:13;38.26;35.95;42.52;;
66450;Laerm;56829;52.274;4.770;2023-02-15T01:16:24;37.48;34.77;44.46;;
66450;Laerm;56829;52.274;4.770;2023-02-15T01:16:35;36.85;34.73;38.93;;
66450;Laerm;56829;52.274;4.770;2023-02-15T01:16:45;36.80;34.36;39.02;;
66450;Laerm;56829;52.274;4.770;2023-02-15T01:16:55;36.96;34.45;39.61;;
66450;Laerm;56829;52.274;4.770;2023-02-15T01:17:05;36.54;34.40;38.49;;
66450;Laerm;56829;52.274;4.770;2023-02-15T01:17:16;36.09;34.08;38.55;;
66450;Laerm;56829;52.274;4.770;2023-02-15T01:17:26;36.47;33.48;42.55;;
66450;Laerm;56829;52.274;4.770;2023-02-15T01:17:36;36.61;34.17;39.18;;
66450;Laerm;56829;52.274;4.770;2023-02-15T01:17:46;37.16;34.90;39.60;;
66450;Laerm;56829;52.274;4.770;2023-02-15T01:18:02;40.77;33.92;54.93;;